My Meet Scores
Shannon Weiss, Gym Kinetics Gymnastics - MyMeetScores.com
Top100 | Top Teams | Upcoming Meets | Completed Meets | Latest | Add Scores | Help| Support | Bookmark and Share

Shannon Weiss, Gym Kinetics Gymnastics
Personal Bests
LevelVault BarsBeamFloorAA
49.3509.425 9.3259.20037.275
58.8509.375 9.3258.65036.100
69.0509.150 9.2508.45035.375
Meet Scores
Date Meet Team Session Level Division Vault Bars Beam Floor AA
2012-03-16 2012 Illinois Level 6, 7 State Championships Gym Kinetics Gymnastics 4 6 Sr.C 8.875 13 9.150 3 8.900 11 8.450 23 35.375 7T
2012-02-25 Midwest Open 2012 Flipstar Gymnastics Academy 5B 6 Lvl 6: 12 & up 8.675 19 9.050 3 8.325 16 8.300 18 34.350 10
2012-02-10 IGI Chicago Style Gymnastics Gym Kinetics Gymnastics 511 6 12 & Over 8.925 10T 8.725 4 7.925 25 7.900 33 33.475 18
2012-01-20 Sand Dollar/ Whitlow Invitational Flipstar Gymnastics Academy E07 6 Jr B 8.650 4 9.125 2 7.975 4 7.825 5 33.575 4
2012-01-06 2012 St. Jude Invite Flipstar Gymnastics Academy 6A 6 Senior 8.725 6 9.000 1 8.700 9 8.050 15 34.475 5
2011-12-15 2011 Hawaiian Pineapple Classic Flipstar Gymnastics Academy 9B 6 12 8.850 5 9.000 2 8.775 4 7.400 10 34.025 5T
2011-11-18 2011 Thanksgiving Classic Gym Kinetics Gymnastics 4 6 11+ 8.725 18 8.400 8T 8.550 17 7.700 35 33.375 19T
2011-03-25 2011 Illinois Level 6-9-10 State Meet Flipstar Gymnastics Academy 3 6 Jr.C 9.000 17 8.450 15 8.450 23 8.025 24 33.925 25
2011-03-04 Elgin Invite Flipstar Gymnastics Academy 6 6 11 8.400 9 8.650 5 8.050 16 7.925 18 33.025 11
2011-02-19 Big Dream Classic Gym Kinetics Gymnastics 5A 6 11 yrs 8.800 7T 8.900 2 9.250 3T 8.300 11 35.250 5
2011-02-11 IGI Chicago Style Gymnastics Meet Gym Kinetics Gymnastics 531 6 11 Yr Olds 8.675 11 8.800 9 8.150 24 8.300 20 33.925 18
2011-01-21 Bravo Classic Flipstar Gymnastics Academy 5B 6 11-12 9.050 13 8.500 9 8.250 20 7.775 31 33.575 24
2011-01-08 Crossroads Classic Gym Kinetics Gymnastics 3B 6 Jr 8.650 2 7.650 4 8.400 4 7.700 5 32.400 4
2010-12-03 Make a Wish Gym Kinetics Gymnastics 8 6 11 8.875 7 8.900 4 8.975 6 8.200 18 34.950 9
2010-04-23 2010 Illinois Level 5 State Championships Gym Kinetics Gymnastics 5 Jr.B 8.800 27 9.375 4 8.850 23 8.650 25 35.675 20
2010-02-20 BIG Dream Classic 2010 Flipstar Gymnastics Academy 3B 5 10 8.850 7 9.300 4 9.325 9 8.625 15 36.100 7
2010-02-12 IGI Chicago Style Gymnastics Meet Flipstar Gymnastics Academy 633 5 10 Yr Olds 8.650 4* 9.150 2 8.925 8 8.500 12T 35.225 3T
2010-01-29 Wisconsin Dells Gymnastics Vacation Classic Flipstar Gymnastics Academy 5C,5D 5 10 8.725 5 8.700 7T 8.600 16 7.800 25 33.825 12
2010-01-09 Crossroads Classic 2010 Flipstar Gymnastics Academy All Sessions Combined 5 Jr B 8.600 3 9.200 1 8.900 2 8.125 9 34.825 2T
2009-12-04 Ultimate Wish Classic Flipstar Gymnastics Academy 8 5 Ch9-11 8.000 31 9.150 5T 8.800 14 8.475 38 34.425 17
2009-11-13 2009 North Judges Cup Gym Kinetics Sports Complex 3A 5 10 8.050 11 9.200 1 8.050 10 8.400 7 33.700 2
2009-03-13 2009 Illinois Level 4 State Championships Gym-Kinetics 4 JrD 9.350 18 9.425 1 9.325 1 9.175 4 37.275 2
2009-03-07 Midwest Open 2009 Gym Kinetics Sports Complex 2A 4 9 9.000 10 9.175 9 8.700 13 9.050 10 35.925 11
2009-02-06 IGI Chicago Style Gymnastics Meet Gym Kinetics Gymnastics 121 4 9 Yr Olds 8.850 7T 9.325 3T 8.850 9 9.125 7 36.150 5
2009-01-23 2009 Bravo Classic Gym Kinetics Gymnastics 8B 4 9yrs 8.850 15 9.100 4 9.300 2 9.200 2 36.450 2
2009-01-09 Twistars Invitational 2009 Midnight Madness Gym Kinetics Sports Complex 4b 4 9 8.950 8 9.400 1 8.900 4 8.550 4 35.800 3
2008-12-13 St Nick Invite Gym Kinetics Sports Complex 5 4 All 8.900 30 9.150 9 9.050 13 8.800 35 35.900 12
2008-11-22 Thanksgiving Classic Gym Kinetics Gymnastics 6 4 Ch 9+ 8.700 18T 8.900 5 8.950 2 8.800 8T 35.350 3

www.lazysuits.com